createdAt,value
2019-03-03T00:00:12.952Z,98238.69
2019-03-03T00:02:43.139Z,98241.00
2019-03-03T00:05:13.500Z,98233.88
2019-03-03T00:07:43.815Z,98234.56
2019-03-03T00:10:14.179Z,98230.14
2019-03-03T00:12:44.262Z,98226.95
2019-03-03T00:15:14.572Z,98223.20
2019-03-03T00:17:45.074Z,98220.66
2019-03-03T00:20:16.224Z,98206.78
2019-03-03T00:22:46.929Z,98201.95
2019-03-03T00:25:17.330Z,98192.66
2019-03-03T00:27:47.675Z,98204.38
2019-03-03T00:30:18.618Z,98201.05
2019-03-03T00:32:49.030Z,98203.30
2019-03-03T00:35:19.264Z,98202.81
2019-03-03T00:38:12.358Z,98206.17
2019-03-03T00:41:04.629Z,98208.84
2019-03-03T00:43:46.614Z,98208.84
2019-03-03T00:46:34.422Z,98200.88
2019-03-03T00:49:41.634Z,98207.73
2019-03-03T00:52:17.537Z,98208.80
2019-03-03T00:55:04.430Z,98201.44
2019-03-03T00:57:52.487Z,98195.27
2019-03-03T01:00:43.847Z,98189.82
2019-03-03T01:03:19.149Z,98188.72
2019-03-03T01:06:01.942Z,98188.55
2019-03-03T01:08:48.304Z,98198.92
2019-03-03T01:11:34.344Z,98191.33
2019-03-03T01:14:14.823Z,98194.52
2019-03-03T01:17:00.647Z,98194.49
2019-03-03T01:19:47.407Z,98191.49
2019-03-03T01:22:39.576Z,98193.15
2019-03-03T01:25:09.807Z,98202.16
2019-03-03T01:27:40.200Z,98204.27
2019-03-03T01:30:11.773Z,98205.02
2019-03-03T01:32:43.576Z,98206.95
2019-03-03T01:35:16.600Z,98216.59
2019-03-03T01:37:46.724Z,98215.56
2019-03-03T01:40:17.204Z,98212.59
2019-03-03T01:42:47.338Z,98218.72
2019-03-03T01:45:17.796Z,98215.95
2019-03-03T01:47:48.196Z,98199.97
2019-03-03T01:50:18.473Z,98200.61
2019-03-03T01:52:48.666Z,98205.61
2019-03-03T01:55:18.983Z,98200.56
2019-03-03T01:57:49.781Z,98203.05
2019-03-03T02:00:26.441Z,98198.28
2019-03-03T02:02:57.382Z,98196.34
2019-03-03T02:05:27.633Z,98195.37
2019-03-03T02:07:57.729Z,98192.72
2019-03-03T02:10:27.935Z,98185.91
2019-03-03T02:12:58.166Z,98179.67
2019-03-03T02:15:28.694Z,98173.39
2019-03-03T02:17:58.894Z,98172.59
2019-03-03T02:20:29.233Z,98161.86
2019-03-03T02:22:59.696Z,98160.62
2019-03-03T02:25:30.170Z,98150.34
2019-03-03T02:28:00.340Z,98150.16
2019-03-03T02:30:30.503Z,98145.05
2019-03-03T02:33:00.664Z,98147.95
2019-03-03T02:35:33.203Z,98143.23
2019-03-03T02:38:03.320Z,98146.27
2019-03-03T02:40:33.763Z,98139.09
2019-03-03T02:43:03.943Z,98143.08
2019-03-03T02:45:34.013Z,98142.31
2019-03-03T02:48:04.232Z,98131.88
2019-03-03T02:50:34.602Z,98129.75
2019-03-03T02:53:04.745Z,98126.89
2019-03-03T02:55:34.906Z,98112.77
2019-03-03T02:58:05.221Z,98113.05
2019-03-03T03:00:37.208Z,98110.62
2019-03-03T03:03:11.283Z,98106.55
2019-03-03T03:06:10.744Z,98097.98
2019-03-03T03:08:58.303Z,98092.77
2019-03-03T03:11:54.887Z,98088.72
2019-03-03T03:14:43.925Z,98090.91
2019-03-03T03:17:32.116Z,98095.13
2019-03-03T03:20:23.940Z,98085.55
2019-03-03T03:23:00.841Z,98099.59
2019-03-03T03:25:50.015Z,98107.45
2019-03-03T03:28:40.271Z,98111.87
2019-03-03T03:31:35.187Z,98097.18
2019-03-03T03:34:24.580Z,98104.90
2019-03-03T03:37:08.467Z,98105.17
2019-03-03T03:40:00.886Z,98105.95
2019-03-03T03:42:44.706Z,98098.91
2019-03-03T03:45:26.577Z,98091.34
2019-03-03T03:48:21.548Z,98098.98
2019-03-03T03:51:03.307Z,98097.32
2019-03-03T03:53:47.019Z,98091.96
2019-03-03T03:56:33.071Z,98081.30
2019-03-03T03:59:15.026Z,98078.16
2019-03-03T04:02:04.392Z,98071.45
2019-03-03T04:04:56.505Z,98062.55
2019-03-03T04:07:53.104Z,98054.68
2019-03-03T04:10:39.210Z,98065.25
2019-03-03T04:13:21.944Z,98064.85
2019-03-03T04:16:04.295Z,98071.95
2019-03-03T04:18:49.098Z,98060.64
2019-03-03T04:21:28.185Z,98066.69
2019-03-03T04:24:16.024Z,98070.95
2019-03-03T04:26:55.997Z,98070.04
2019-03-03T04:29:48.210Z,98066.53
2019-03-03T04:32:27.627Z,98066.38
2019-03-03T04:35:17.083Z,98071.95
2019-03-03T04:38:11.959Z,98074.80
2019-03-03T04:40:54.923Z,98074.00
2019-03-03T04:43:29.886Z,98069.50
2019-03-03T04:46:17.421Z,98072.94
2019-03-03T04:49:06.522Z,98070.78
2019-03-03T04:51:55.888Z,98064.97
2019-03-03T04:54:48.861Z,98060.22
2019-03-03T04:57:41.250Z,98059.51
2019-03-03T05:00:31.371Z,98049.48
2019-03-03T05:03:32.515Z,98047.23
2019-03-03T05:06:21.081Z,98053.26
2019-03-03T05:09:06.891Z,98054.67
2019-03-03T05:12:42.075Z,98058.03
2019-03-03T05:15:34.635Z,98063.23
2019-03-03T05:18:18.927Z,98066.11
2019-03-03T05:20:50.725Z,98068.20
2019-03-03T05:23:23.234Z,98067.33
2019-03-03T05:25:53.661Z,98065.48
2019-03-03T05:28:23.850Z,98063.50
2019-03-03T05:30:54.440Z,98060.72
2019-03-03T05:33:24.587Z,98060.15
2019-03-03T05:35:54.740Z,98055.04
2019-03-03T05:38:27.480Z,98053.53
2019-03-03T05:40:57.628Z,98048.48
2019-03-03T05:43:27.757Z,98052.54
2019-03-03T05:45:57.934Z,98056.80
2019-03-03T05:48:29.365Z,98046.50
2019-03-03T05:50:59.576Z,98046.45
2019-03-03T05:53:30.065Z,98045.88
2019-03-03T05:56:00.157Z,98043.33
2019-03-03T05:58:30.321Z,98042.16
2019-03-03T06:01:00.525Z,98045.92
2019-03-03T06:03:30.977Z,98043.41
2019-03-03T06:06:01.173Z,98053.97
2019-03-03T06:08:31.364Z,98054.50
2019-03-03T06:11:01.534Z,98050.48
2019-03-03T06:13:31.656Z,98057.50
2019-03-03T06:16:01.881Z,98051.67
2019-03-03T06:18:34.431Z,98051.67
2019-03-03T06:21:04.670Z,98049.40
2019-03-03T06:23:34.801Z,98040.00
2019-03-03T06:26:05.129Z,98045.31
2019-03-03T06:28:41.414Z,98040.98
2019-03-03T06:31:11.559Z,98040.50
2019-03-03T06:33:41.710Z,98035.89
2019-03-03T06:36:11.846Z,98041.30
2019-03-03T06:38:43.435Z,98031.78
2019-03-03T06:41:13.494Z,98033.34
2019-03-03T06:43:44.972Z,98026.21
2019-03-03T06:46:16.233Z,98022.77
2019-03-03T06:48:46.590Z,98012.67
2019-03-03T06:51:16.808Z,98005.67
2019-03-03T06:53:47.021Z,98004.66
2019-03-03T06:56:17.814Z,98004.37
2019-03-03T06:58:48.215Z,98008.45
2019-03-03T07:01:18.389Z,98000.82
2019-03-03T07:03:48.536Z,98002.89
2019-03-03T07:06:18.930Z,97998.97
2019-03-03T07:08:49.101Z,98006.07
2019-03-03T07:11:19.272Z,98012.52
2019-03-03T07:13:49.420Z,98013.81
2019-03-03T07:16:19.521Z,98006.77
2019-03-03T07:18:49.686Z,98004.70
2019-03-03T07:21:20.146Z,98008.88
2019-03-03T07:23:50.331Z,98012.10
2019-03-03T07:26:20.720Z,98022.84
2019-03-03T14:56:33.985Z,97722.23
2019-03-03T14:59:05.205Z,97720.78
2019-03-03T15:01:36.023Z,97717.28
2019-03-03T15:04:06.668Z,97714.39
2019-03-03T15:06:36.803Z,97716.77
2019-03-03T15:09:20.429Z,97711.20
2019-03-03T15:11:50.554Z,97724.13
2019-03-03T15:14:20.738Z,97719.63
2019-03-03T15:16:50.872Z,97730.30
2019-03-03T15:19:22.366Z,97723.91
2019-03-03T15:21:52.568Z,97722.86
2019-03-03T15:24:22.950Z,97704.59
2019-03-03T15:26:53.429Z,97701.22
2019-03-03T15:29:23.549Z,97698.72
2019-03-03T15:31:54.760Z,97693.09
2019-03-03T15:34:24.998Z,97683.34
2019-03-03T15:36:55.426Z,97678.92
2019-03-03T15:39:26.192Z,97677.36
2019-03-03T15:41:56.422Z,97677.13
2019-03-03T15:44:28.695Z,97674.48
2019-03-03T15:46:58.984Z,97672.96
2019-03-03T15:49:32.303Z,97681.58
2019-03-03T15:52:02.693Z,97675.86
2019-03-03T15:54:32.831Z,97675.61
2019-03-03T15:57:03.281Z,97670.61
2019-03-03T15:59:33.452Z,97670.25
2019-03-03T16:02:06.552Z,97664.88
2019-03-03T16:04:36.654Z,97669.67
2019-03-03T16:07:06.857Z,97659.87
2019-03-03T16:09:36.989Z,97666.31
2019-03-03T16:12:09.535Z,97660.10
2019-03-03T16:14:39.710Z,97661.90
2019-03-03T16:17:09.851Z,97652.38
2019-03-03T16:19:40.378Z,97646.63
2019-03-03T16:22:10.561Z,97642.59
2019-03-03T16:24:41.020Z,97644.98
2019-03-03T16:27:11.146Z,97642.36
2019-03-03T16:29:42.978Z,97631.50
2019-03-03T16:32:13.260Z,97626.95
2019-03-03T16:34:43.489Z,97608.13
2019-03-03T16:37:13.646Z,97605.51
2019-03-03T16:39:44.048Z,97599.89
2019-03-03T16:42:14.242Z,97587.24
2019-03-03T16:44:44.442Z,97585.94
2019-03-03T16:47:15.125Z,97589.50
2019-03-03T16:49:48.348Z,97594.75
2019-03-03T16:52:18.489Z,97593.67
2019-03-03T16:54:48.892Z,97585.09
2019-03-03T16:57:19.960Z,97579.95
2019-03-03T16:59:50.129Z,97585.53
2019-03-03T17:02:20.332Z,97591.71
2019-03-03T17:04:50.772Z,97572.52
2019-03-03T17:07:20.981Z,97574.91
2019-03-03T17:09:51.104Z,97574.91
2019-03-03T17:12:21.346Z,97573.59
2019-03-03T17:14:51.499Z,97573.12
2019-03-03T17:17:21.842Z,97568.02
2019-03-03T17:19:52.326Z,97574.44
2019-03-03T17:22:22.441Z,97568.34
2019-03-03T17:24:52.558Z,97564.78
2019-03-03T17:27:22.953Z,97560.72
2019-03-03T17:29:54.375Z,97564.05
2019-03-03T17:32:24.468Z,97565.12
2019-03-03T17:34:54.612Z,97579.06
2019-03-03T17:37:24.874Z,97576.20
2019-03-03T17:39:55.157Z,97575.73
2019-03-03T17:42:25.335Z,97578.58
2019-03-03T17:44:56.786Z,97585.35
2019-03-03T17:47:27.267Z,97582.50
2019-03-03T17:49:57.383Z,97586.30
2019-03-03T17:52:27.523Z,97591.87
2019-03-03T17:54:57.731Z,97594.00
2019-03-03T17:57:28.588Z,97594.09
2019-03-03T17:59:58.848Z,97607.30
2019-03-03T18:02:29.035Z,97596.34
2019-03-03T18:04:59.196Z,97593.33
2019-03-03T18:07:30.548Z,97598.55
2019-03-03T18:10:00.776Z,97595.17
2019-03-03T18:12:30.853Z,97599.30
2019-03-03T18:15:20.818Z,97587.34
2019-03-03T18:17:51.039Z,97583.48
2019-03-03T18:20:21.293Z,97569.30
2019-03-03T18:22:51.697Z,97569.78
2019-03-03T18:25:23.238Z,97557.19
2019-03-03T18:27:53.991Z,97540.13
2019-03-03T18:30:24.374Z,97536.77
2019-03-03T18:32:54.603Z,97538.17
2019-03-03T18:35:25.108Z,97523.25
2019-03-03T18:37:58.143Z,97533.16
2019-03-03T18:40:30.811Z,97520.03
2019-03-03T18:43:01.249Z,97525.64
2019-03-03T18:45:31.506Z,97517.22
2019-03-03T18:48:01.715Z,97520.97
2019-03-03T18:50:31.847Z,97518.20
2019-03-03T18:53:01.949Z,97505.12
2019-03-03T18:55:32.439Z,97501.30
2019-03-03T18:58:02.620Z,97515.81
2019-03-03T19:00:32.828Z,97504.71
2019-03-03T19:03:02.987Z,97510.91
2019-03-03T19:05:33.185Z,97509.87
2019-03-03T19:08:03.280Z,97514.36
2019-03-03T19:10:33.780Z,97516.55
2019-03-03T19:13:04.981Z,97514.19
2019-03-03T19:15:36.168Z,97510.58
2019-03-03T19:18:06.655Z,97508.48
2019-03-03T19:20:36.818Z,97499.11
2019-03-03T19:23:07.258Z,97501.64
2019-03-03T19:25:43.668Z,97504.25
2019-03-03T19:28:16.136Z,97496.25
2019-03-03T19:30:46.440Z,97493.20
2019-03-03T19:33:28.089Z,97494.04
2019-03-03T19:36:01.108Z,97493.20
2019-03-03T19:38:31.658Z,97492.58
2019-03-03T19:41:07.136Z,97484.89
2019-03-03T19:43:37.499Z,97480.93
2019-03-03T19:46:08.377Z,97476.84
2019-03-03T19:48:39.622Z,97474.14
2019-03-03T19:51:11.143Z,97453.87
2019-03-03T19:53:52.457Z,97443.02
2019-03-03T19:56:22.739Z,97437.26
2019-03-03T19:58:53.667Z,97426.34
2019-03-03T20:01:26.507Z,97423.27
2019-03-03T20:03:57.107Z,97421.35
2019-03-03T20:06:27.448Z,97419.13
2019-03-03T20:08:58.955Z,97424.54
2019-03-03T20:11:30.888Z,97414.77
2019-03-03T20:14:04.392Z,97426.92
2019-03-03T20:16:36.492Z,97424.48
2019-03-03T20:19:08.805Z,97418.83
2019-03-03T20:22:37.665Z,97421.78
2019-03-03T20:25:25.775Z,97417.12
2019-03-03T20:28:11.584Z,97418.64
2019-03-03T20:31:05.181Z,97412.66
2019-03-03T20:33:52.100Z,97411.39
2019-03-03T20:36:23.797Z,97413.37
2019-03-03T20:38:53.964Z,97409.49
2019-03-03T20:41:24.508Z,97405.50
2019-03-03T20:43:54.832Z,97409.16
2019-03-03T20:46:25.003Z,97399.89
2019-03-03T20:48:55.125Z,97389.91
2019-03-03T20:51:25.301Z,97387.85
2019-03-03T20:53:55.422Z,97376.98
2019-03-03T20:56:25.556Z,97370.00
2019-03-03T20:58:55.821Z,97373.16
2019-03-03T21:01:35.260Z,97369.41
2019-03-03T21:04:08.543Z,97372.02
2019-03-03T21:06:46.440Z,97378.17
2019-03-03T21:09:16.929Z,97379.34
2019-03-03T21:11:50.756Z,97376.69
2019-03-03T21:14:21.839Z,97377.19
2019-03-03T21:16:58.501Z,97360.86
2019-03-03T21:19:29.989Z,97353.23
2019-03-03T21:22:01.886Z,97345.62
2019-03-03T21:24:31.982Z,97341.52
2019-03-03T21:27:03.462Z,97328.08
2019-03-03T21:29:35.318Z,97322.03
2019-03-03T21:32:06.049Z,97319.02
2019-03-03T21:34:36.742Z,97310.03
2019-03-03T21:37:07.783Z,97297.19
2019-03-03T21:39:37.997Z,97291.63
2019-03-03T21:42:08.249Z,97279.84
2019-03-03T21:44:38.485Z,97276.81
2019-03-03T21:47:11.830Z,97270.24
2019-03-03T21:49:41.996Z,97263.17
2019-03-03T21:52:12.149Z,97262.55
2019-03-03T21:54:42.577Z,97259.25
2019-03-03T21:57:12.859Z,97254.64
2019-03-03T21:59:43.696Z,97258.12
2019-03-03T22:02:13.897Z,97265.09
2019-03-03T22:04:44.756Z,97273.05
2019-03-03T22:07:15.232Z,97269.47
2019-03-03T22:09:48.617Z,97262.75
2019-03-03T22:12:18.958Z,97248.03
2019-03-03T22:14:50.329Z,97247.21
2019-03-03T22:17:20.626Z,97246.77
2019-03-03T22:19:50.829Z,97240.96
2019-03-03T22:22:20.953Z,97233.55
2019-03-03T22:24:51.437Z,97226.83
2019-03-03T22:27:21.560Z,97205.78
2019-03-03T22:29:51.722Z,97210.38
2019-03-03T22:32:21.921Z,97196.32
2019-03-03T22:34:52.268Z,97202.25
2019-03-03T22:37:22.403Z,97199.80
2019-03-03T22:39:52.808Z,97196.56
2019-03-03T22:42:22.901Z,97197.16
2019-03-03T22:44:53.035Z,97199.61
2019-03-03T22:47:23.151Z,97184.85
2019-03-03T22:49:53.294Z,97181.34
2019-03-03T22:52:23.421Z,97172.48
2019-03-03T22:54:53.855Z,97154.66
2019-03-03T22:57:23.996Z,97157.20
2019-03-03T22:59:54.116Z,97151.50
2019-03-03T23:02:24.492Z,97146.64
2019-03-03T23:05:12.122Z,97136.30
2019-03-03T23:07:55.493Z,97135.45
2019-03-03T23:11:17.847Z,97138.52
2019-03-03T23:14:26.086Z,97129.61
2019-03-03T23:17:42.891Z,97123.98
2019-03-03T23:20:23.773Z,97122.66
2019-03-03T23:23:24.584Z,97111.77
2019-03-03T23:25:54.946Z,97109.45
2019-03-03T23:28:25.779Z,97097.25
2019-03-03T23:30:58.210Z,97095.78
2019-03-03T23:33:28.407Z,97093.78
2019-03-03T23:35:58.631Z,97093.84
2019-03-03T23:38:28.785Z,97089.02
2019-03-03T23:41:05.378Z,97093.50
2019-03-03T23:43:35.635Z,97088.78
2019-03-03T23:46:05.791Z,97096.27
2019-03-03T23:48:36.398Z,97103.17
2019-03-03T23:51:06.522Z,97103.63
2019-03-03T23:53:36.663Z,97112.67
2019-03-03T23:56:09.188Z,97100.27
2019-03-03T23:58:39.286Z,97103.18
